createdAt,value
2023-02-04T00:01:17.648Z,1.00
2023-02-04T00:03:44.868Z,1.15
2023-02-04T00:06:12.046Z,0.70
2023-02-04T00:08:39.219Z,1.02
2023-02-04T00:11:06.461Z,0.60
2023-02-04T00:13:33.754Z,0.68
2023-02-04T00:16:01.070Z,0.60
2023-02-04T00:18:29.248Z,0.60
2023-02-04T00:20:56.299Z,0.73
2023-02-04T00:23:23.579Z,0.93
2023-02-04T00:25:50.733Z,0.60
2023-02-04T00:28:17.890Z,0.50
2023-02-04T00:30:45.401Z,0.60
2023-02-04T00:33:12.489Z,0.90
2023-02-04T00:35:40.306Z,0.52
2023-02-04T00:38:07.618Z,0.60
2023-02-04T00:40:34.820Z,0.70
2023-02-04T00:43:02.154Z,0.70
2023-02-04T00:45:29.350Z,0.90
2023-02-04T00:47:57.385Z,1.23
2023-02-04T00:50:24.623Z,0.68
2023-02-04T00:52:52.678Z,0.60
2023-02-04T00:55:20.015Z,0.70
2023-02-04T00:57:47.785Z,0.60
2023-02-04T01:00:16.034Z,0.47
2023-02-04T01:02:44.500Z,1.15
2023-02-04T01:05:11.691Z,0.88
2023-02-04T01:07:38.919Z,0.65
2023-02-04T01:10:06.522Z,0.68
2023-02-04T01:12:34.015Z,0.52
2023-02-04T01:15:01.474Z,0.50
2023-02-04T01:17:28.621Z,0.60
2023-02-04T01:19:55.775Z,0.52
2023-02-04T01:22:22.911Z,0.60
2023-02-04T01:24:50.807Z,0.50
2023-02-04T01:27:36.568Z,0.70
2023-02-04T01:30:06.183Z,0.70
2023-02-04T01:32:34.321Z,1.08
2023-02-04T01:35:01.555Z,0.52
2023-02-04T01:37:28.798Z,0.60
2023-02-04T01:39:55.968Z,0.60
2023-02-04T01:42:23.238Z,0.60
2023-02-04T01:44:51.152Z,0.70
2023-02-04T01:47:19.574Z,0.73
2023-02-04T01:49:51.198Z,0.60
2023-02-04T01:52:18.829Z,0.52
2023-02-04T01:54:45.953Z,0.60
2023-02-04T01:57:16.412Z,0.52
2023-02-04T01:59:49.466Z,0.73
2023-02-04T02:02:39.313Z,0.65
2023-02-04T02:05:07.775Z,0.95
2023-02-04T02:07:35.265Z,0.57
2023-02-04T02:10:05.145Z,0.70
2023-02-04T02:12:32.307Z,0.55
2023-02-04T02:15:00.426Z,0.60
2023-02-04T02:17:27.670Z,0.50
2023-02-04T02:19:54.922Z,0.50
2023-02-04T02:22:41.483Z,0.75
2023-02-04T02:25:13.196Z,1.10
2023-02-04T02:27:41.272Z,0.65
2023-02-04T02:30:11.380Z,0.63
2023-02-04T02:32:39.495Z,0.55
2023-02-04T02:35:07.301Z,0.60
2023-02-04T02:37:34.539Z,0.60
2023-02-04T02:40:01.979Z,0.60
2023-02-04T02:42:30.426Z,0.63
2023-02-04T02:44:58.695Z,0.50
2023-02-04T02:47:28.443Z,0.43
2023-02-04T02:49:55.702Z,0.77
2023-02-04T02:52:23.217Z,0.63
2023-02-04T02:54:50.513Z,0.90
2023-02-04T02:57:23.152Z,0.70
2023-02-04T02:59:50.581Z,0.75
2023-02-04T03:02:23.028Z,0.50
2023-02-04T03:04:56.657Z,0.60
2023-02-04T03:07:27.962Z,0.88
2023-02-04T03:09:55.304Z,0.60
2023-02-04T03:12:22.627Z,0.70
2023-02-04T03:14:49.928Z,0.77
2023-02-04T03:17:17.237Z,0.70
2023-02-04T03:19:46.518Z,0.90
2023-02-04T03:22:14.213Z,0.57
2023-02-04T03:24:41.830Z,0.75
2023-02-04T03:27:09.302Z,0.73
2023-02-04T03:29:45.423Z,0.52
2023-02-04T03:32:12.927Z,0.60
2023-02-04T03:34:40.042Z,0.70
2023-02-04T03:37:07.292Z,0.50
2023-02-04T03:39:34.528Z,0.50
2023-02-04T03:42:01.928Z,0.80
2023-02-04T03:44:29.305Z,0.50
2023-02-04T03:46:56.801Z,1.02
2023-02-04T03:49:24.315Z,0.65
2023-02-04T03:51:51.653Z,1.42
2023-02-04T03:54:18.961Z,0.55
2023-02-04T03:56:46.132Z,0.93
2023-02-04T03:59:13.343Z,0.57
2023-02-04T04:01:40.529Z,0.40
2023-02-04T04:04:07.677Z,0.75
2023-02-04T04:06:34.928Z,0.60
2023-02-04T04:09:01.993Z,0.85
2023-02-04T04:11:29.244Z,0.90
2023-02-04T04:13:56.391Z,0.70
2023-02-04T04:16:23.711Z,0.50
2023-02-04T04:18:50.757Z,0.80
2023-02-04T04:21:18.089Z,0.60
2023-02-04T04:23:45.186Z,0.90
2023-02-04T04:26:12.602Z,0.50
2023-02-04T04:28:39.688Z,0.80
2023-02-04T04:31:06.890Z,0.60
2023-02-04T04:33:34.018Z,0.70
2023-02-04T04:36:01.163Z,0.50
2023-02-04T04:38:28.308Z,0.60
2023-02-04T04:40:55.422Z,0.60
2023-02-04T04:43:22.547Z,0.45
2023-02-04T04:45:49.657Z,0.60
2023-02-04T04:48:16.858Z,0.50
2023-02-04T04:50:44.164Z,0.50
2023-02-04T04:53:11.497Z,0.65
2023-02-04T04:55:39.221Z,0.50
2023-02-04T04:58:08.166Z,0.40
2023-02-04T05:00:35.511Z,0.70
2023-02-04T05:03:02.640Z,0.73
2023-02-04T05:05:29.784Z,0.50
2023-02-04T05:07:57.624Z,0.60
2023-02-04T05:10:24.980Z,0.65
2023-02-04T05:12:52.097Z,0.60
2023-02-04T05:15:19.176Z,0.65
2023-02-04T05:17:46.315Z,0.68
2023-02-04T05:20:13.556Z,0.75
2023-02-04T05:22:40.628Z,0.55
2023-02-04T05:25:07.922Z,0.70
2023-02-04T05:27:35.100Z,0.60
2023-02-04T05:30:02.271Z,0.70
2023-02-04T05:32:29.403Z,0.70
2023-02-04T05:34:56.742Z,0.63
2023-02-04T05:37:24.046Z,0.65
2023-02-04T05:39:51.141Z,0.60
2023-02-04T05:42:18.190Z,0.57
2023-02-04T05:44:45.297Z,0.50
2023-02-04T05:47:12.400Z,0.65
2023-02-04T05:49:39.556Z,0.70
2023-02-04T05:52:06.878Z,0.75
2023-02-04T05:54:34.109Z,0.70
2023-02-04T05:57:01.210Z,0.88
2023-02-04T05:59:28.303Z,0.77
2023-02-04T06:01:55.530Z,0.60
2023-02-04T06:04:22.747Z,0.60
2023-02-04T06:06:49.859Z,0.60
2023-02-04T06:09:17.024Z,0.60
2023-02-04T06:11:44.136Z,0.75
2023-02-04T06:14:11.436Z,0.65
2023-02-04T06:16:38.567Z,0.70
2023-02-04T06:19:05.765Z,0.70
2023-02-04T06:21:33.008Z,0.85
2023-02-04T06:24:00.223Z,0.90
2023-02-04T06:26:27.558Z,0.93
2023-02-04T06:28:54.661Z,1.00
2023-02-04T06:31:22.180Z,1.08
2023-02-04T06:33:49.380Z,0.90
2023-02-04T06:36:16.522Z,0.85
2023-02-04T06:38:43.760Z,1.20
2023-02-04T06:41:10.988Z,0.80
2023-02-04T06:43:38.149Z,1.00
2023-02-04T06:46:05.647Z,1.05
2023-02-04T06:48:33.029Z,0.90
2023-02-04T06:51:00.198Z,0.90
2023-02-04T06:53:27.448Z,0.75
2023-02-04T06:55:54.539Z,1.27
2023-02-04T06:58:21.767Z,0.90
2023-02-04T07:00:49.042Z,0.90
2023-02-04T07:03:16.189Z,0.80
2023-02-04T07:05:43.401Z,0.70
2023-02-04T07:08:10.706Z,0.80
2023-02-04T07:10:37.852Z,0.85
2023-02-04T07:13:04.943Z,0.88
2023-02-04T07:15:32.248Z,0.77
2023-02-04T07:18:00.307Z,1.13
2023-02-04T07:20:27.529Z,1.10
2023-02-04T07:22:54.635Z,1.10
2023-02-04T07:25:21.707Z,1.25
2023-02-04T07:27:49.345Z,0.95
2023-02-04T07:30:16.787Z,0.90
2023-02-04T07:32:44.158Z,1.10
2023-02-04T07:35:12.672Z,1.45
2023-02-04T07:37:39.917Z,1.00
2023-02-04T07:40:07.739Z,1.17
2023-02-04T07:42:34.947Z,1.15
2023-02-04T07:45:10.678Z,1.13
2023-02-04T07:47:37.960Z,1.30
2023-02-04T07:50:05.469Z,1.67
2023-02-04T07:52:32.582Z,1.23
2023-02-04T07:54:59.745Z,1.52
2023-02-04T07:57:26.978Z,1.42
2023-02-04T07:59:54.055Z,1.10
2023-02-04T08:02:21.228Z,1.77
2023-02-04T08:04:48.391Z,1.73
2023-02-04T08:07:15.593Z,1.52
2023-02-04T08:09:42.919Z,1.48
2023-02-04T08:12:10.123Z,1.60
2023-02-04T08:14:37.563Z,1.88
2023-02-04T08:17:04.957Z,1.35
2023-02-04T08:19:32.677Z,1.45
2023-02-04T08:21:59.950Z,1.75
2023-02-04T08:24:27.095Z,1.50
2023-02-04T08:26:54.259Z,1.67
2023-02-04T08:29:21.471Z,2.28
2023-02-04T08:31:48.617Z,1.63
2023-02-04T08:34:15.790Z,2.20
2023-02-04T08:36:44.527Z,1.98
2023-02-04T08:39:12.624Z,1.80
2023-02-04T08:41:39.811Z,1.92
2023-02-04T08:44:07.002Z,2.38
2023-02-04T08:46:34.180Z,3.95
2023-02-04T08:49:02.092Z,2.03
2023-02-04T08:51:31.364Z,2.05
2023-02-04T08:53:58.655Z,2.13
2023-02-04T08:56:25.789Z,2.53
2023-02-04T08:58:53.019Z,2.15
2023-02-04T09:01:20.726Z,2.55
2023-02-04T09:03:48.103Z,1.92
2023-02-04T09:06:15.542Z,2.45
2023-02-04T09:08:42.763Z,2.22
2023-02-04T09:11:12.331Z,1.77
2023-02-04T09:13:39.810Z,1.80
2023-02-04T09:16:07.245Z,2.10
2023-02-04T09:18:34.781Z,1.77
2023-02-04T09:21:01.887Z,1.55
2023-02-04T09:23:30.278Z,1.40
2023-02-04T09:25:57.331Z,2.22
2023-02-04T09:28:24.433Z,2.05
2023-02-04T09:30:51.677Z,1.73
2023-02-04T09:33:19.555Z,1.45
2023-02-04T09:35:46.883Z,1.33
2023-02-04T09:38:14.322Z,1.20
2023-02-04T09:40:44.112Z,1.38
2023-02-04T09:43:22.076Z,1.60
2023-02-04T09:45:49.745Z,1.67
2023-02-04T09:48:17.466Z,1.42
2023-02-04T09:50:44.681Z,1.92
2023-02-04T09:53:17.724Z,1.30
2023-02-04T09:55:46.937Z,2.05
2023-02-04T09:58:20.528Z,1.35
2023-02-04T10:00:52.821Z,1.27
2023-02-04T10:03:24.420Z,1.48
2023-02-04T10:05:52.386Z,1.38
2023-02-04T10:08:24.864Z,1.73
2023-02-04T10:10:52.214Z,1.50
2023-02-04T10:13:35.434Z,1.48
2023-02-04T10:16:08.711Z,1.58
2023-02-04T10:18:36.816Z,2.30
2023-02-04T10:21:33.827Z,1.20
2023-02-04T10:24:05.541Z,1.45
2023-02-04T10:26:33.318Z,1.60
2023-02-04T10:29:13.040Z,1.60
2023-02-04T10:31:43.536Z,1.60
2023-02-04T10:34:20.690Z,1.67
2023-02-04T10:36:52.001Z,1.80
2023-02-04T10:39:22.142Z,0.90
2023-02-04T10:41:52.061Z,1.25
2023-02-04T10:44:29.914Z,1.83
2023-02-04T10:47:06.274Z,1.27
2023-02-04T10:49:33.914Z,1.42
2023-02-04T10:52:02.668Z,1.90
2023-02-04T10:54:36.115Z,1.63
2023-02-04T10:57:21.658Z,1.02
2023-02-04T10:59:53.891Z,1.38
2023-02-04T11:02:52.166Z,1.40
2023-02-04T11:05:22.505Z,1.63
2023-02-04T11:07:50.926Z,1.20
2023-02-04T11:10:24.554Z,1.50
2023-02-04T11:12:54.883Z,1.38
2023-02-04T11:15:41.221Z,1.42
2023-02-04T11:18:27.745Z,1.15
2023-02-04T11:20:57.977Z,1.00
2023-02-04T11:23:30.911Z,1.20
2023-02-04T11:26:19.327Z,1.15
2023-02-04T11:29:15.943Z,0.93
2023-02-04T11:31:57.072Z,1.40
2023-02-04T11:34:29.060Z,1.10
2023-02-04T11:37:02.315Z,1.13
2023-02-04T11:39:33.009Z,1.23
2023-02-04T11:42:04.311Z,1.77
2023-02-04T11:44:32.208Z,1.10
2023-02-04T11:47:00.757Z,1.45
2023-02-04T11:49:27.958Z,1.65
2023-02-04T11:52:09.518Z,1.30
2023-02-04T11:54:37.164Z,1.63
2023-02-04T11:57:04.626Z,1.40
2023-02-04T11:59:31.970Z,1.13
2023-02-04T12:02:17.288Z,1.42
2023-02-04T12:04:56.192Z,1.75
2023-02-04T12:07:30.664Z,1.15
2023-02-04T12:09:58.244Z,1.25
2023-02-04T12:12:30.680Z,1.02
2023-02-04T12:15:25.891Z,0.98
2023-02-04T12:18:07.588Z,0.80
2023-02-04T12:20:37.117Z,1.00
2023-02-04T12:23:05.463Z,1.38
2023-02-04T12:25:33.088Z,1.00
2023-02-04T12:28:00.626Z,1.05
2023-02-04T12:30:28.170Z,1.02
2023-02-04T12:32:55.374Z,1.40
2023-02-04T12:35:22.613Z,1.38
2023-02-04T12:37:49.864Z,1.00
2023-02-04T12:40:19.413Z,1.25
2023-02-04T12:42:46.928Z,1.05
2023-02-04T12:45:16.352Z,1.17
2023-02-04T12:47:44.281Z,1.40
2023-02-04T12:50:13.348Z,1.40
2023-02-04T12:52:40.674Z,0.95
2023-02-04T12:55:09.139Z,1.85
2023-02-04T12:57:36.473Z,1.50
2023-02-04T13:00:05.054Z,1.40
2023-02-04T13:02:32.255Z,1.20
2023-02-04T13:04:59.433Z,1.02
2023-02-04T13:07:26.479Z,1.40
2023-02-04T13:09:53.706Z,0.93
2023-02-04T13:12:20.786Z,0.90
2023-02-04T13:14:48.110Z,1.13
2023-02-04T13:17:15.654Z,1.00
2023-02-04T13:19:42.967Z,1.23
2023-02-04T13:22:10.438Z,1.35
2023-02-04T13:24:37.717Z,1.20
2023-02-04T13:27:06.196Z,2.83
2023-02-04T13:29:33.456Z,4.57
2023-02-04T13:32:00.679Z,2.97
2023-02-04T13:34:27.882Z,2.40
2023-02-04T13:36:55.191Z,4.10
2023-02-04T13:39:22.414Z,1.92
2023-02-04T13:41:49.707Z,2.40
2023-02-04T13:44:16.908Z,1.90
2023-02-04T13:46:44.005Z,2.60
2023-02-04T13:49:11.077Z,3.38
2023-02-04T13:51:38.282Z,2.53
2023-02-04T13:54:05.433Z,2.83
2023-02-04T13:56:33.583Z,1.95
2023-02-04T13:59:00.728Z,1.90
2023-02-04T14:01:28.431Z,1.65
2023-02-04T14:03:55.768Z,1.10
2023-02-04T14:06:23.680Z,1.60
2023-02-04T14:08:50.872Z,1.00
2023-02-04T14:11:18.150Z,1.13
2023-02-04T14:13:45.291Z,1.40
2023-02-04T14:16:12.661Z,1.40
2023-02-04T14:18:39.771Z,1.38
2023-02-04T14:21:07.098Z,1.27
2023-02-04T14:23:34.278Z,0.90
2023-02-04T14:26:01.543Z,1.00
2023-02-04T14:28:28.691Z,1.05
2023-02-04T14:30:55.915Z,0.80
2023-02-04T14:33:23.089Z,1.20
2023-02-04T14:35:50.288Z,0.93
2023-02-04T14:38:18.573Z,1.10
2023-02-04T14:40:46.018Z,1.80
2023-02-04T14:43:13.282Z,0.80
2023-02-04T14:45:41.369Z,1.00
2023-02-04T14:48:09.325Z,1.30
2023-02-04T14:50:36.457Z,1.42
2023-02-04T14:53:03.607Z,1.23
2023-02-04T14:55:30.839Z,1.38
2023-02-04T14:57:57.975Z,1.00
2023-02-04T15:00:25.503Z,1.10
2023-02-04T15:02:52.776Z,1.27
2023-02-04T15:05:20.281Z,1.23
2023-02-04T15:07:47.549Z,0.93
2023-02-04T15:10:15.440Z,1.35
2023-02-04T15:12:42.752Z,1.05
2023-02-04T15:15:11.143Z,1.33
2023-02-04T15:17:38.515Z,1.02
2023-02-04T15:20:06.041Z,1.00
2023-02-04T15:22:33.210Z,1.90
2023-02-04T15:25:00.553Z,1.40
2023-02-04T15:27:27.912Z,1.15
2023-02-04T15:29:55.469Z,1.50
2023-02-04T15:32:22.710Z,0.95
2023-02-04T15:34:49.966Z,1.00
2023-02-04T15:37:17.146Z,1.88
2023-02-04T15:39:44.263Z,1.20
2023-02-04T15:42:11.377Z,1.52
2023-02-04T15:44:38.677Z,1.30
2023-02-04T15:47:06.555Z,1.20
2023-02-04T15:49:35.127Z,0.90
2023-02-04T15:52:02.719Z,1.20
2023-02-04T15:54:30.195Z,1.15
2023-02-04T15:56:58.013Z,1.00
2023-02-04T15:59:25.315Z,1.05
2023-02-04T16:01:52.476Z,0.93
2023-02-04T16:04:20.894Z,0.90
2023-02-04T16:06:58.134Z,1.30
2023-02-04T16:09:26.393Z,1.02
2023-02-04T16:11:53.709Z,1.00
2023-02-04T16:14:21.264Z,2.10
2023-02-04T16:16:48.673Z,1.45
2023-02-04T16:19:15.899Z,1.67
2023-02-04T16:21:43.659Z,2.17
2023-02-04T16:24:10.936Z,2.10
2023-02-04T16:26:38.038Z,1.60
2023-02-04T16:29:05.276Z,2.33
2023-02-04T16:31:32.576Z,1.33
2023-02-04T16:33:59.949Z,1.40
2023-02-04T16:36:27.139Z,0.60
2023-02-04T16:38:54.278Z,0.52
2023-02-04T16:41:21.921Z,0.47
2023-02-04T16:43:49.111Z,0.40
2023-02-04T16:46:16.627Z,0.50
2023-02-04T16:48:44.120Z,0.50
2023-02-04T16:51:11.721Z,0.45
2023-02-04T16:53:39.629Z,0.40
2023-02-04T16:56:07.311Z,0.50
2023-02-04T16:58:34.489Z,0.43
2023-02-04T17:01:02.176Z,0.32
2023-02-04T17:03:29.580Z,0.30
2023-02-04T17:05:56.876Z,0.50
2023-02-04T17:08:24.157Z,0.40
2023-02-04T17:11:09.686Z,0.40
2023-02-04T17:13:36.948Z,0.50
2023-02-04T17:16:04.265Z,0.40
2023-02-04T17:18:32.369Z,0.47
2023-02-04T17:21:00.112Z,0.50
2023-02-04T17:23:28.427Z,0.40
2023-02-04T17:25:55.845Z,0.50
2023-02-04T17:28:24.293Z,0.50
2023-02-04T17:30:51.623Z,0.43
2023-02-04T17:33:18.934Z,0.65
2023-02-04T17:35:46.178Z,0.65
2023-02-04T17:38:13.337Z,0.60
2023-02-04T17:40:40.612Z,0.63
2023-02-04T17:43:07.819Z,0.40
2023-02-04T17:45:35.824Z,0.70
2023-02-04T17:48:05.220Z,0.80
2023-02-04T17:53:09.592Z,0.90
2023-02-04T17:55:38.699Z,1.00
2023-02-04T17:58:27.597Z,0.90
2023-02-04T18:00:57.757Z,1.30
2023-02-04T18:03:29.398Z,1.10
2023-02-04T18:05:57.869Z,1.35
2023-02-04T18:08:39.910Z,1.00
2023-02-04T18:11:19.144Z,1.20
2023-02-04T18:13:48.519Z,1.20
2023-02-04T18:16:22.064Z,0.80
2023-02-04T18:18:49.688Z,0.60
2023-02-04T18:21:24.246Z,0.80
2023-02-04T18:24:02.453Z,0.55
2023-02-04T18:26:29.854Z,0.70
2023-02-04T18:28:58.794Z,0.93
2023-02-04T18:31:37.790Z,0.50
2023-02-04T18:34:20.514Z,0.55
2023-02-04T18:36:48.142Z,0.70
2023-02-04T18:39:27.307Z,0.80
2023-02-04T18:41:55.459Z,0.60
2023-02-04T18:44:27.044Z,0.52
2023-02-04T18:46:54.664Z,0.83
2023-02-04T18:49:29.254Z,0.40
2023-02-04T18:51:58.906Z,0.40
2023-02-04T18:54:37.138Z,0.80
2023-02-04T18:57:13.773Z,0.65
2023-02-04T18:59:41.743Z,0.75
2023-02-04T19:02:36.374Z,1.00
2023-02-04T19:05:26.515Z,1.10
2023-02-04T19:08:06.610Z,1.08
2023-02-04T19:10:37.674Z,1.38
2023-02-04T19:13:41.206Z,1.55
2023-02-04T19:16:23.546Z,0.93
2023-02-04T19:18:53.360Z,0.90
2023-02-04T19:21:30.409Z,0.77
2023-02-04T19:24:24.162Z,0.80
2023-02-04T19:26:55.812Z,1.13
2023-02-04T19:29:23.316Z,0.90
2023-02-04T19:31:55.805Z,0.80
2023-02-04T19:34:28.151Z,0.80
2023-02-04T19:36:55.813Z,0.70
2023-02-04T19:39:34.087Z,0.90
2023-02-04T19:42:01.792Z,0.80
2023-02-04T19:44:32.216Z,0.77
2023-02-04T19:47:23.702Z,0.70
2023-02-04T19:50:00.816Z,0.80
2023-02-04T19:52:36.979Z,0.80
2023-02-04T19:55:35.884Z,0.52
2023-02-04T19:58:17.393Z,0.80
2023-02-04T20:00:52.566Z,0.93
2023-02-04T20:03:33.345Z,0.70
2023-02-04T20:06:09.863Z,0.70
2023-02-04T20:08:43.039Z,0.55
2023-02-04T20:11:31.387Z,0.90
2023-02-04T20:14:26.678Z,0.80
2023-02-04T20:17:19.339Z,0.70
2023-02-04T20:19:47.144Z,0.80
2023-02-04T20:22:21.076Z,0.60
2023-02-04T20:24:51.208Z,1.03
2023-02-04T20:27:35.614Z,0.90
2023-02-04T20:30:10.896Z,0.70
2023-02-04T20:33:17.546Z,1.00
2023-02-04T20:35:44.788Z,0.70
2023-02-04T20:38:17.342Z,0.80
2023-02-04T20:40:46.952Z,0.60
2023-02-04T20:43:20.342Z,0.70
2023-02-04T20:45:57.251Z,0.77
2023-02-04T20:48:34.586Z,0.60
2023-02-04T20:51:04.713Z,0.83
2023-02-04T20:53:40.808Z,0.90
2023-02-04T20:56:28.069Z,1.13
2023-02-04T20:59:29.013Z,0.83
2023-02-04T21:01:56.419Z,0.90
2023-02-04T21:04:36.892Z,0.80
2023-02-04T21:07:14.609Z,1.40
2023-02-04T21:09:41.931Z,0.73
2023-02-04T21:12:09.215Z,0.90
2023-02-04T21:14:36.541Z,1.10
2023-02-04T21:17:04.676Z,0.90
2023-02-04T21:19:33.910Z,0.80
2023-02-04T21:22:01.568Z,0.70
2023-02-04T21:24:31.951Z,0.80
2023-02-04T21:26:59.557Z,0.80
2023-02-04T21:29:26.814Z,1.00
2023-02-04T21:31:54.771Z,0.70
2023-02-04T21:34:22.145Z,1.07
2023-02-04T21:36:49.340Z,1.20
2023-02-04T21:39:16.479Z,1.03
2023-02-04T21:41:43.568Z,1.20
2023-02-04T21:44:10.644Z,0.63
2023-02-04T21:46:37.830Z,1.00
2023-02-04T21:49:05.490Z,0.77
2023-02-04T21:51:32.691Z,0.70
2023-02-04T21:54:00.958Z,1.13
2023-02-04T21:56:28.124Z,1.27
2023-02-04T21:58:56.594Z,0.83
2023-02-04T22:01:23.794Z,0.70
2023-02-04T22:03:50.928Z,0.90
2023-02-04T22:06:18.089Z,1.10
2023-02-04T22:08:45.172Z,0.80
2023-02-04T22:11:12.360Z,1.10
2023-02-04T22:13:39.529Z,1.00
2023-02-04T22:16:06.832Z,0.70
2023-02-04T22:18:34.006Z,0.70
2023-02-04T22:21:01.156Z,0.60
2023-02-04T22:23:28.241Z,0.70
2023-02-04T22:25:55.343Z,0.90
2023-02-04T22:28:22.502Z,0.97
2023-02-04T22:30:49.725Z,0.90
2023-02-04T22:33:16.814Z,0.70
2023-02-04T22:35:44.075Z,0.77
2023-02-04T22:38:11.223Z,0.57
2023-02-04T22:40:38.339Z,0.60
2023-02-04T22:43:06.126Z,1.07
2023-02-04T22:45:33.569Z,1.07
2023-02-04T22:48:00.841Z,0.87
2023-02-04T22:50:28.105Z,0.80
2023-02-04T22:52:55.245Z,1.20
2023-02-04T22:55:22.495Z,1.00
2023-02-04T22:57:49.708Z,1.30
2023-02-04T23:00:17.162Z,1.57
2023-02-04T23:02:44.337Z,1.30
2023-02-04T23:05:11.390Z,0.90
2023-02-04T23:07:38.753Z,0.80
2023-02-04T23:10:06.477Z,0.90
2023-02-04T23:12:33.631Z,1.30
2023-02-04T23:15:00.931Z,0.90
2023-02-04T23:17:28.129Z,2.03
2023-02-04T23:19:55.237Z,1.23
2023-02-04T23:22:22.472Z,1.23
2023-02-04T23:24:49.801Z,1.30
2023-02-04T23:27:17.367Z,0.87
2023-02-04T23:29:44.510Z,1.27
2023-02-04T23:32:11.912Z,0.90
2023-02-04T23:34:39.864Z,1.47
2023-02-04T23:37:07.378Z,0.90
2023-02-04T23:39:34.576Z,1.07
2023-02-04T23:42:01.947Z,1.33
2023-02-04T23:44:29.159Z,1.20
2023-02-04T23:46:56.351Z,1.27
2023-02-04T23:49:23.564Z,1.03
2023-02-04T23:51:50.761Z,1.10
2023-02-04T23:54:17.855Z,0.67
2023-02-04T23:56:45.047Z,1.00
2023-02-04T23:59:12.208Z,0.67
